sensor_id;sensor_type;location;lat;lon;timestamp;P1;durP1;ratioP1;P2;durP2;ratioP2
579;SDS011;276;48.392;9.950;2022-11-20T00:00:13;5.13;;;4.63;;
579;SDS011;276;48.392;9.950;2022-11-20T00:02:39;5.13;;;4.83;;
579;SDS011;276;48.392;9.950;2022-11-20T00:05:08;6.67;;;4.90;;
579;SDS011;276;48.392;9.950;2022-11-20T00:07:33;6.93;;;6.00;;
579;SDS011;276;48.392;9.950;2022-11-20T00:09:59;4.60;;;4.30;;
579;SDS011;276;48.392;9.950;2022-11-20T00:12:24;5.10;;;4.70;;
579;SDS011;276;48.392;9.950;2022-11-20T00:14:50;4.40;;;4.07;;
579;SDS011;276;48.392;9.950;2022-11-20T00:17:16;5.00;;;4.60;;
579;SDS011;276;48.392;9.950;2022-11-20T00:19:43;4.20;;;3.90;;
579;SDS011;276;48.392;9.950;2022-11-20T00:22:11;6.10;;;4.50;;
579;SDS011;276;48.392;9.950;2022-11-20T00:24:37;3.77;;;3.47;;
579;SDS011;276;48.392;9.950;2022-11-20T00:27:02;3.93;;;3.67;;
579;SDS011;276;48.392;9.950;2022-11-20T00:29:28;3.80;;;3.50;;
579;SDS011;276;48.392;9.950;2022-11-20T00:31:54;3.30;;;3.00;;
579;SDS011;276;48.392;9.950;2022-11-20T00:34:24;4.20;;;3.80;;
579;SDS011;276;48.392;9.950;2022-11-20T00:36:52;4.10;;;3.80;;
579;SDS011;276;48.392;9.950;2022-11-20T00:39:17;4.27;;;3.97;;
579;SDS011;276;48.392;9.950;2022-11-20T00:41:45;5.83;;;4.70;;
579;SDS011;276;48.392;9.950;2022-11-20T00:44:11;5.57;;;5.17;;
579;SDS011;276;48.392;9.950;2022-11-20T00:46:36;4.70;;;4.30;;
579;SDS011;276;48.392;9.950;2022-11-20T00:49:06;5.43;;;5.03;;
579;SDS011;276;48.392;9.950;2022-11-20T00:51:32;6.43;;;4.87;;
579;SDS011;276;48.392;9.950;2022-11-20T00:54:00;5.50;;;5.00;;
579;SDS011;276;48.392;9.950;2022-11-20T00:56:28;5.30;;;4.47;;
579;SDS011;276;48.392;9.950;2022-11-20T00:58:54;4.97;;;4.50;;
579;SDS011;276;48.392;9.950;2022-11-20T01:01:20;5.57;;;5.17;;
579;SDS011;276;48.392;9.950;2022-11-20T01:03:54;5.37;;;4.97;;
579;SDS011;276;48.392;9.950;2022-11-20T01:06:22;5.00;;;4.60;;
579;SDS011;276;48.392;9.950;2022-11-20T01:08:48;5.13;;;4.73;;
579;SDS011;276;48.392;9.950;2022-11-20T01:11:21;6.20;;;4.80;;
579;SDS011;276;48.392;9.950;2022-11-20T01:13:52;5.47;;;4.87;;
579;SDS011;276;48.392;9.950;2022-11-20T01:16:37;5.80;;;5.23;;
579;SDS011;276;48.392;9.950;2022-11-20T01:19:05;4.47;;;4.07;;
579;SDS011;276;48.392;9.950;2022-11-20T01:21:33;5.10;;;4.63;;
579;SDS011;276;48.392;9.950;2022-11-20T01:24:01;5.10;;;4.70;;
579;SDS011;276;48.392;9.950;2022-11-20T01:26:30;4.63;;;4.33;;
579;SDS011;276;48.392;9.950;2022-11-20T01:29:00;5.30;;;4.80;;
579;SDS011;276;48.392;9.950;2022-11-20T01:31:33;6.73;;;5.17;;
579;SDS011;276;48.392;9.950;2022-11-20T01:34:01;6.83;;;5.23;;
579;SDS011;276;48.392;9.950;2022-11-20T01:36:35;5.30;;;4.87;;
579;SDS011;276;48.392;9.950;2022-11-20T01:39:06;5.07;;;4.57;;
579;SDS011;276;48.392;9.950;2022-11-20T01:41:35;5.60;;;5.10;;
579;SDS011;276;48.392;9.950;2022-11-20T01:44:20;5.43;;;5.03;;
579;SDS011;276;48.392;9.950;2022-11-20T01:49:25;5.33;;;4.90;;
579;SDS011;276;48.392;9.950;2022-11-20T01:52:07;5.53;;;5.13;;
579;SDS011;276;48.392;9.950;2022-11-20T01:54:50;5.97;;;5.47;;
579;SDS011;276;48.392;9.950;2022-11-20T01:57:22;5.07;;;4.60;;
579;SDS011;276;48.392;9.950;2022-11-20T01:59:52;5.77;;;5.23;;
579;SDS011;276;48.392;9.950;2022-11-20T02:02:24;5.13;;;4.63;;
579;SDS011;276;48.392;9.950;2022-11-20T02:04:51;5.30;;;4.80;;
579;SDS011;276;48.392;9.950;2022-11-20T02:07:23;6.23;;;4.23;;
579;SDS011;276;48.392;9.950;2022-11-20T02:09:50;5.57;;;5.07;;
579;SDS011;276;48.392;9.950;2022-11-20T02:12:16;6.00;;;5.53;;
579;SDS011;276;48.392;9.950;2022-11-20T02:15:00;4.80;;;4.40;;
579;SDS011;276;48.392;9.950;2022-11-20T02:17:26;5.47;;;5.07;;
579;SDS011;276;48.392;9.950;2022-11-20T02:19:52;6.50;;;4.90;;
579;SDS011;276;48.392;9.950;2022-11-20T02:22:31;6.10;;;5.37;;
579;SDS011;276;48.392;9.950;2022-11-20T02:25:03;5.20;;;4.80;;
579;SDS011;276;48.392;9.950;2022-11-20T02:27:30;5.00;;;4.60;;
579;SDS011;276;48.392;9.950;2022-11-20T02:29:57;5.30;;;4.80;;
579;SDS011;276;48.392;9.950;2022-11-20T02:32:28;6.80;;;5.07;;
579;SDS011;276;48.392;9.950;2022-11-20T02:35:06;5.40;;;5.00;;
579;SDS011;276;48.392;9.950;2022-11-20T02:37:33;5.60;;;5.20;;
579;SDS011;276;48.392;9.950;2022-11-20T02:40:04;5.10;;;4.70;;
579;SDS011;276;48.392;9.950;2022-11-20T02:42:30;5.00;;;4.70;;
579;SDS011;276;48.392;9.950;2022-11-20T02:44:56;5.80;;;5.30;;
579;SDS011;276;48.392;9.950;2022-11-20T02:47:21;5.33;;;4.93;;
579;SDS011;276;48.392;9.950;2022-11-20T02:49:49;6.47;;;5.73;;
579;SDS011;276;48.392;9.950;2022-11-20T02:52:19;4.97;;;4.67;;
579;SDS011;276;48.392;9.950;2022-11-20T02:54:45;5.93;;;5.37;;
579;SDS011;276;48.392;9.950;2022-11-20T02:57:13;5.53;;;5.03;;
579;SDS011;276;48.392;9.950;2022-11-20T02:59:40;5.27;;;4.87;;
579;SDS011;276;48.392;9.950;2022-11-20T03:02:08;5.73;;;5.20;;
579;SDS011;276;48.392;9.950;2022-11-20T03:04:36;6.13;;;5.57;;
579;SDS011;276;48.392;9.950;2022-11-20T03:07:04;6.13;;;5.53;;
579;SDS011;276;48.392;9.950;2022-11-20T03:09:35;5.23;;;4.77;;
579;SDS011;276;48.392;9.950;2022-11-20T03:12:05;5.73;;;5.00;;
579;SDS011;276;48.392;9.950;2022-11-20T03:14:34;4.93;;;4.63;;
579;SDS011;276;48.392;9.950;2022-11-20T03:17:02;3.97;;;3.50;;
579;SDS011;276;48.392;9.950;2022-11-20T03:19:28;5.23;;;4.73;;
579;SDS011;276;48.392;9.950;2022-11-20T03:21:55;4.53;;;4.13;;
579;SDS011;276;48.392;9.950;2022-11-20T03:24:21;6.00;;;4.27;;
579;SDS011;276;48.392;9.950;2022-11-20T03:26:49;4.47;;;4.07;;
579;SDS011;276;48.392;9.950;2022-11-20T03:29:17;4.80;;;4.43;;
579;SDS011;276;48.392;9.950;2022-11-20T03:31:42;4.37;;;3.97;;
579;SDS011;276;48.392;9.950;2022-11-20T03:34:11;4.30;;;4.00;;
579;SDS011;276;48.392;9.950;2022-11-20T03:36:40;4.93;;;4.63;;
579;SDS011;276;48.392;9.950;2022-11-20T03:39:09;3.70;;;3.50;;
579;SDS011;276;48.392;9.950;2022-11-20T03:41:36;5.27;;;4.70;;
579;SDS011;276;48.392;9.950;2022-11-20T03:44:07;4.40;;;4.10;;
579;SDS011;276;48.392;9.950;2022-11-20T03:46:36;5.60;;;3.80;;
579;SDS011;276;48.392;9.950;2022-11-20T03:49:05;5.13;;;4.07;;
579;SDS011;276;48.392;9.950;2022-11-20T03:51:37;4.10;;;3.80;;
579;SDS011;276;48.392;9.950;2022-11-20T03:54:06;4.90;;;4.50;;
579;SDS011;276;48.392;9.950;2022-11-20T03:56:37;4.10;;;3.80;;
579;SDS011;276;48.392;9.950;2022-11-20T03:59:06;4.93;;;4.27;;
579;SDS011;276;48.392;9.950;2022-11-20T04:01:32;5.90;;;4.83;;
579;SDS011;276;48.392;9.950;2022-11-20T04:04:04;4.43;;;4.03;;
579;SDS011;276;48.392;9.950;2022-11-20T04:06:36;5.70;;;4.70;;
579;SDS011;276;48.392;9.950;2022-11-20T04:09:03;5.00;;;4.57;;
579;SDS011;276;48.392;9.950;2022-11-20T04:11:32;4.33;;;4.03;;
579;SDS011;276;48.392;9.950;2022-11-20T04:13:59;4.03;;;3.73;;
579;SDS011;276;48.392;9.950;2022-11-20T04:16:30;4.63;;;4.30;;
579;SDS011;276;48.392;9.950;2022-11-20T04:19:02;5.03;;;3.90;;
579;SDS011;276;48.392;9.950;2022-11-20T04:21:30;4.30;;;3.90;;
579;SDS011;276;48.392;9.950;2022-11-20T04:23:58;4.33;;;4.03;;
579;SDS011;276;48.392;9.950;2022-11-20T04:26:25;3.70;;;3.40;;
579;SDS011;276;48.392;9.950;2022-11-20T04:28:54;4.77;;;4.37;;
579;SDS011;276;48.392;9.950;2022-11-20T04:31:26;4.20;;;3.90;;
579;SDS011;276;48.392;9.950;2022-11-20T04:33:53;4.53;;;4.13;;
579;SDS011;276;48.392;9.950;2022-11-20T04:36:22;4.73;;;4.30;;
579;SDS011;276;48.392;9.950;2022-11-20T04:38:56;4.30;;;3.90;;
579;SDS011;276;48.392;9.950;2022-11-20T04:41:27;4.80;;;4.40;;
579;SDS011;276;48.392;9.950;2022-11-20T04:43:57;5.10;;;4.70;;
579;SDS011;276;48.392;9.950;2022-11-20T04:46:30;5.23;;;4.70;;
579;SDS011;276;48.392;9.950;2022-11-20T04:49:04;4.17;;;3.87;;
579;SDS011;276;48.392;9.950;2022-11-20T04:51:30;4.17;;;3.87;;
579;SDS011;276;48.392;9.950;2022-11-20T04:53:59;4.37;;;4.07;;
579;SDS011;276;48.392;9.950;2022-11-20T04:56:27;4.50;;;4.20;;
579;SDS011;276;48.392;9.950;2022-11-20T04:58:59;4.60;;;4.30;;
579;SDS011;276;48.392;9.950;2022-11-20T05:01:28;5.40;;;4.90;;
579;SDS011;276;48.392;9.950;2022-11-20T05:03:57;7.30;;;5.00;;
579;SDS011;276;48.392;9.950;2022-11-20T05:06:23;4.87;;;4.57;;
579;SDS011;276;48.392;9.950;2022-11-20T05:08:50;4.33;;;3.90;;
579;SDS011;276;48.392;9.950;2022-11-20T05:11:17;4.37;;;3.97;;
579;SDS011;276;48.392;9.950;2022-11-20T05:13:47;4.53;;;4.20;;
579;SDS011;276;48.392;9.950;2022-11-20T05:16:16;4.50;;;4.10;;
579;SDS011;276;48.392;9.950;2022-11-20T05:18:46;6.10;;;5.60;;
579;SDS011;276;48.392;9.950;2022-11-20T05:21:12;5.73;;;5.23;;
579;SDS011;276;48.392;9.950;2022-11-20T05:23:41;5.17;;;4.77;;
579;SDS011;276;48.392;9.950;2022-11-20T05:26:08;4.37;;;4.07;;
579;SDS011;276;48.392;9.950;2022-11-20T05:28:40;5.00;;;4.70;;
579;SDS011;276;48.392;9.950;2022-11-20T05:31:13;5.60;;;5.10;;
579;SDS011;276;48.392;9.950;2022-11-20T05:33:41;5.37;;;4.97;;
579;SDS011;276;48.392;9.950;2022-11-20T05:36:08;6.13;;;5.63;;
579;SDS011;276;48.392;9.950;2022-11-20T05:38:37;5.87;;;5.47;;
579;SDS011;276;48.392;9.950;2022-11-20T05:41:06;5.70;;;5.30;;
579;SDS011;276;48.392;9.950;2022-11-20T05:43:35;6.10;;;5.60;;
579;SDS011;276;48.392;9.950;2022-11-20T05:46:06;6.30;;;5.80;;
579;SDS011;276;48.392;9.950;2022-11-20T05:48:33;8.07;;;7.33;;
579;SDS011;276;48.392;9.950;2022-11-20T05:51:02;6.37;;;5.83;;
579;SDS011;276;48.392;9.950;2022-11-20T05:53:32;6.47;;;5.87;;
579;SDS011;276;48.392;9.950;2022-11-20T05:58:28;6.97;;;6.37;;
579;SDS011;276;48.392;9.950;2022-11-20T06:00:54;7.90;;;7.30;;
579;SDS011;276;48.392;9.950;2022-11-20T06:03:29;9.23;;;6.70;;
579;SDS011;276;48.392;9.950;2022-11-20T06:05:59;8.10;;;7.40;;
579;SDS011;276;48.392;9.950;2022-11-20T06:08:28;7.37;;;6.70;;
579;SDS011;276;48.392;9.950;2022-11-20T06:10:54;7.70;;;6.97;;
579;SDS011;276;48.392;9.950;2022-11-20T06:13:22;7.67;;;6.97;;
579;SDS011;276;48.392;9.950;2022-11-20T06:15:52;8.37;;;7.67;;
579;SDS011;276;48.392;9.950;2022-11-20T06:18:20;8.63;;;7.23;;
579;SDS011;276;48.392;9.950;2022-11-20T06:20:46;8.17;;;7.27;;
579;SDS011;276;48.392;9.950;2022-11-20T06:23:12;8.20;;;7.47;;
579;SDS011;276;48.392;9.950;2022-11-20T06:25:38;8.80;;;7.90;;
579;SDS011;276;48.392;9.950;2022-11-20T06:28:07;8.07;;;7.37;;
579;SDS011;276;48.392;9.950;2022-11-20T06:30:34;10.60;;;9.20;;
579;SDS011;276;48.392;9.950;2022-11-20T06:33:02;8.30;;;7.57;;
579;SDS011;276;48.392;9.950;2022-11-20T06:35:27;9.20;;;8.40;;
579;SDS011;276;48.392;9.950;2022-11-20T06:37:57;9.90;;;9.00;;
579;SDS011;276;48.392;9.950;2022-11-20T06:40:27;8.20;;;7.60;;
579;SDS011;276;48.392;9.950;2022-11-20T06:42:53;7.77;;;7.17;;
579;SDS011;276;48.392;9.950;2022-11-20T06:45:21;8.10;;;7.30;;
579;SDS011;276;48.392;9.950;2022-11-20T06:47:49;8.53;;;7.73;;
579;SDS011;276;48.392;9.950;2022-11-20T06:50:17;8.03;;;7.43;;
579;SDS011;276;48.392;9.950;2022-11-20T06:52:42;8.13;;;7.43;;
579;SDS011;276;48.392;9.950;2022-11-20T06:55:10;6.70;;;6.20;;
579;SDS011;276;48.392;9.950;2022-11-20T06:57:38;7.97;;;7.27;;
579;SDS011;276;48.392;9.950;2022-11-20T07:00:04;6.80;;;6.20;;
579;SDS011;276;48.392;9.950;2022-11-20T07:02:33;7.10;;;6.60;;
579;SDS011;276;48.392;9.950;2022-11-20T07:05:01;7.70;;;7.17;;
579;SDS011;276;48.392;9.950;2022-11-20T07:07:32;7.13;;;6.53;;
579;SDS011;276;48.392;9.950;2022-11-20T07:09:57;7.60;;;7.00;;
579;SDS011;276;48.392;9.950;2022-11-20T07:12:24;8.47;;;5.70;;
579;SDS011;276;48.392;9.950;2022-11-20T07:14:51;7.50;;;6.90;;
579;SDS011;276;48.392;9.950;2022-11-20T07:17:17;7.13;;;6.53;;
579;SDS011;276;48.392;9.950;2022-11-20T07:19:42;7.57;;;6.97;;
579;SDS011;276;48.392;9.950;2022-11-20T07:22:13;6.03;;;5.63;;
579;SDS011;276;48.392;9.950;2022-11-20T07:24:43;6.77;;;6.17;;
579;SDS011;276;48.392;9.950;2022-11-20T07:27:11;6.47;;;5.87;;
579;SDS011;276;48.392;9.950;2022-11-20T07:29:39;6.70;;;6.10;;
579;SDS011;276;48.392;9.950;2022-11-20T07:32:04;6.80;;;6.23;;
579;SDS011;276;48.392;9.950;2022-11-20T07:34:30;6.10;;;5.60;;
579;SDS011;276;48.392;9.950;2022-11-20T07:36:56;5.47;;;5.07;;
579;SDS011;276;48.392;9.950;2022-11-20T07:39:24;6.03;;;5.53;;
579;SDS011;276;48.392;9.950;2022-11-20T07:41:52;5.80;;;5.10;;
579;SDS011;276;48.392;9.950;2022-11-20T07:44:19;6.93;;;6.37;;
579;SDS011;276;48.392;9.950;2022-11-20T07:46:47;9.17;;;7.80;;
579;SDS011;276;48.392;9.950;2022-11-20T07:49:13;8.30;;;7.60;;
579;SDS011;276;48.392;9.950;2022-11-20T07:51:46;5.60;;;5.07;;
579;SDS011;276;48.392;9.950;2022-11-20T07:54:11;7.13;;;6.60;;
579;SDS011;276;48.392;9.950;2022-11-20T07:56:39;6.03;;;5.60;;
579;SDS011;276;48.392;9.950;2022-11-20T07:59:07;5.90;;;5.50;;
579;SDS011;276;48.392;9.950;2022-11-20T08:01:33;7.63;;;5.50;;
579;SDS011;276;48.392;9.950;2022-11-20T08:03:58;6.97;;;6.47;;
579;SDS011;276;48.392;9.950;2022-11-20T08:06:29;6.27;;;5.77;;
579;SDS011;276;48.392;9.950;2022-11-20T08:08:56;6.20;;;5.70;;
579;SDS011;276;48.392;9.950;2022-11-20T08:11:22;7.80;;;5.90;;
579;SDS011;276;48.392;9.950;2022-11-20T08:14:08;5.50;;;5.10;;
579;SDS011;276;48.392;9.950;2022-11-20T08:16:45;6.30;;;5.10;;
579;SDS011;276;48.392;9.950;2022-11-20T08:19:15;6.97;;;6.30;;
579;SDS011;276;48.392;9.950;2022-11-20T08:21:41;6.60;;;5.80;;
579;SDS011;276;48.392;9.950;2022-11-20T08:24:07;7.10;;;6.50;;
579;SDS011;276;48.392;9.950;2022-11-20T08:26:39;8.07;;;7.37;;
579;SDS011;276;48.392;9.950;2022-11-20T08:29:05;7.03;;;6.40;;
579;SDS011;276;48.392;9.950;2022-11-20T08:31:36;7.90;;;7.20;;
579;SDS011;276;48.392;9.950;2022-11-20T08:34:06;7.40;;;6.80;;
579;SDS011;276;48.392;9.950;2022-11-20T08:36:34;6.70;;;6.10;;
579;SDS011;276;48.392;9.950;2022-11-20T08:39:00;10.20;;;6.60;;
579;SDS011;276;48.392;9.950;2022-11-20T08:41:26;9.43;;;6.60;;
579;SDS011;276;48.392;9.950;2022-11-20T08:43:57;6.00;;;5.50;;
579;SDS011;276;48.392;9.950;2022-11-20T08:46:28;6.37;;;5.77;;
579;SDS011;276;48.392;9.950;2022-11-20T08:49:07;6.97;;;6.37;;
579;SDS011;276;48.392;9.950;2022-11-20T08:51:36;6.20;;;5.60;;
579;SDS011;276;48.392;9.950;2022-11-20T08:54:03;6.90;;;6.30;;
579;SDS011;276;48.392;9.950;2022-11-20T08:56:29;5.80;;;5.30;;
579;SDS011;276;48.392;9.950;2022-11-20T08:58:58;7.10;;;6.40;;
579;SDS011;276;48.392;9.950;2022-11-20T09:01:27;6.30;;;5.70;;
579;SDS011;276;48.392;9.950;2022-11-20T09:03:57;7.77;;;6.50;;
579;SDS011;276;48.392;9.950;2022-11-20T09:06:25;5.63;;;5.23;;
579;SDS011;276;48.392;9.950;2022-11-20T09:08:52;5.40;;;5.00;;
579;SDS011;276;48.392;9.950;2022-11-20T09:11:22;5.90;;;5.50;;
579;SDS011;276;48.392;9.950;2022-11-20T09:13:48;5.30;;;4.87;;
579;SDS011;276;48.392;9.950;2022-11-20T09:16:14;5.60;;;5.10;;
579;SDS011;276;48.392;9.950;2022-11-20T09:18:42;4.80;;;4.40;;
579;SDS011;276;48.392;9.950;2022-11-20T09:21:13;4.90;;;4.50;;
579;SDS011;276;48.392;9.950;2022-11-20T09:23:39;5.80;;;5.17;;
579;SDS011;276;48.392;9.950;2022-11-20T09:26:05;5.37;;;4.87;;
579;SDS011;276;48.392;9.950;2022-11-20T09:28:36;5.10;;;4.70;;
579;SDS011;276;48.392;9.950;2022-11-20T09:31:05;4.60;;;4.27;;
579;SDS011;276;48.392;9.950;2022-11-20T09:33:41;4.40;;;4.00;;
579;SDS011;276;48.392;9.950;2022-11-20T09:36:07;4.60;;;4.20;;
579;SDS011;276;48.392;9.950;2022-11-20T09:38:36;3.90;;;3.60;;
579;SDS011;276;48.392;9.950;2022-11-20T09:41:05;4.30;;;4.00;;
579;SDS011;276;48.392;9.950;2022-11-20T09:51:59;3.60;;;3.30;;
579;SDS011;276;48.392;9.950;2022-11-20T09:54:34;3.80;;;3.50;;
579;SDS011;276;48.392;9.950;2022-11-20T09:57:03;3.63;;;3.33;;
579;SDS011;276;48.392;9.950;2022-11-20T09:59:41;3.50;;;3.27;;
579;SDS011;276;48.392;9.950;2022-11-20T10:04:53;3.20;;;3.00;;
579;SDS011;276;48.392;9.950;2022-11-20T10:10:13;2.33;;;2.23;;
579;SDS011;276;48.392;9.950;2022-11-20T10:27:15;2.90;;;2.60;;
579;SDS011;276;48.392;9.950;2022-11-20T10:30:16;3.47;;;3.17;;
579;SDS011;276;48.392;9.950;2022-11-20T10:32:43;3.60;;;3.40;;
579;SDS011;276;48.392;9.950;2022-11-20T10:35:20;3.27;;;3.07;;
579;SDS011;276;48.392;9.950;2022-11-20T10:37:55;2.60;;;2.40;;
579;SDS011;276;48.392;9.950;2022-11-20T10:43:00;5.80;;;2.77;;
579;SDS011;276;48.392;9.950;2022-11-20T10:48:25;3.40;;;3.20;;
579;SDS011;276;48.392;9.950;2022-11-20T10:50:57;3.33;;;2.63;;
579;SDS011;276;48.392;9.950;2022-11-20T11:02:17;3.33;;;3.00;;
579;SDS011;276;48.392;9.950;2022-11-20T11:04:51;3.70;;;3.40;;
579;SDS011;276;48.392;9.950;2022-11-20T11:07:24;4.50;;;2.93;;
579;SDS011;276;48.392;9.950;2022-11-20T11:09:56;3.23;;;3.00;;
579;SDS011;276;48.392;9.950;2022-11-20T11:12:24;3.53;;;3.17;;
579;SDS011;276;48.392;9.950;2022-11-20T11:14:57;2.63;;;2.53;;
579;SDS011;276;48.392;9.950;2022-11-20T11:25:22;2.50;;;2.30;;
579;SDS011;276;48.392;9.950;2022-11-20T11:28:04;2.60;;;2.50;;
579;SDS011;276;48.392;9.950;2022-11-20T11:30:43;2.70;;;2.50;;
579;SDS011;276;48.392;9.950;2022-11-20T11:33:11;2.70;;;2.50;;
579;SDS011;276;48.392;9.950;2022-11-20T11:35:49;3.03;;;2.83;;
579;SDS011;276;48.392;9.950;2022-11-20T11:38:23;5.40;;;4.00;;
579;SDS011;276;48.392;9.950;2022-11-20T11:41:02;4.10;;;3.80;;
579;SDS011;276;48.392;9.950;2022-11-20T11:43:30;4.80;;;4.30;;
579;SDS011;276;48.392;9.950;2022-11-20T11:49:01;5.17;;;3.90;;
579;SDS011;276;48.392;9.950;2022-11-20T11:54:20;5.50;;;4.20;;
579;SDS011;276;48.392;9.950;2022-11-20T11:56:59;3.93;;;3.53;;
579;SDS011;276;48.392;9.950;2022-11-20T11:59:39;5.27;;;4.70;;
579;SDS011;276;48.392;9.950;2022-11-20T12:02:24;4.23;;;3.83;;
579;SDS011;276;48.392;9.950;2022-11-20T12:05:18;3.83;;;3.37;;
579;SDS011;276;48.392;9.950;2022-11-20T12:07:57;5.17;;;3.70;;
579;SDS011;276;48.392;9.950;2022-11-20T12:10:42;5.70;;;4.33;;
579;SDS011;276;48.392;9.950;2022-11-20T12:13:20;3.37;;;3.17;;
579;SDS011;276;48.392;9.950;2022-11-20T12:15:47;3.93;;;3.63;;
579;SDS011;276;48.392;9.950;2022-11-20T12:18:22;3.50;;;3.20;;
579;SDS011;276;48.392;9.950;2022-11-20T12:23:39;4.43;;;4.03;;
579;SDS011;276;48.392;9.950;2022-11-20T12:31:37;3.30;;;2.47;;
579;SDS011;276;48.392;9.950;2022-11-20T12:37:34;2.70;;;2.50;;
579;SDS011;276;48.392;9.950;2022-11-20T12:40:07;3.60;;;3.30;;
579;SDS011;276;48.392;9.950;2022-11-20T12:43:04;4.77;;;4.37;;
579;SDS011;276;48.392;9.950;2022-11-20T12:54:29;2.40;;;2.20;;
579;SDS011;276;48.392;9.950;2022-11-20T13:07:43;1.53;;;1.43;;
579;SDS011;276;48.392;9.950;2022-11-20T13:10:26;4.20;;;2.80;;
579;SDS011;276;48.392;9.950;2022-11-20T13:13:12;2.27;;;2.07;;
579;SDS011;276;48.392;9.950;2022-11-20T13:15:54;1.57;;;1.47;;
579;SDS011;276;48.392;9.950;2022-11-20T13:18:31;1.77;;;1.67;;
579;SDS011;276;48.392;9.950;2022-11-20T13:21:12;2.03;;;1.83;;
579;SDS011;276;48.392;9.950;2022-11-20T13:23:45;1.80;;;1.50;;
579;SDS011;276;48.392;9.950;2022-11-20T13:26:21;2.70;;;1.80;;
579;SDS011;276;48.392;9.950;2022-11-20T13:31:47;1.67;;;1.57;;
579;SDS011;276;48.392;9.950;2022-11-20T13:34:22;3.70;;;1.20;;
579;SDS011;276;48.392;9.950;2022-11-20T13:36:51;2.50;;;2.30;;
579;SDS011;276;48.392;9.950;2022-11-20T13:39:25;1.33;;;1.23;;
579;SDS011;276;48.392;9.950;2022-11-20T13:41:55;1.17;;;1.07;;
579;SDS011;276;48.392;9.950;2022-11-20T13:44:37;3.13;;;1.20;;
579;SDS011;276;48.392;9.950;2022-11-20T13:47:24;1.27;;;1.20;;
579;SDS011;276;48.392;9.950;2022-11-20T13:49:51;2.90;;;1.40;;
579;SDS011;276;48.392;9.950;2022-11-20T13:57:58;1.50;;;1.40;;
579;SDS011;276;48.392;9.950;2022-11-20T14:00:43;1.03;;;1.00;;
579;SDS011;276;48.392;9.950;2022-11-20T14:03:20;2.80;;;1.30;;
579;SDS011;276;48.392;9.950;2022-11-20T14:05:59;1.13;;;0.90;;
579;SDS011;276;48.392;9.950;2022-11-20T14:11:03;3.33;;;1.40;;
579;SDS011;276;48.392;9.950;2022-11-20T14:16:31;1.13;;;1.00;;
579;SDS011;276;48.392;9.950;2022-11-20T14:21:45;3.40;;;1.80;;
579;SDS011;276;48.392;9.950;2022-11-20T14:24:12;2.10;;;1.90;;
579;SDS011;276;48.392;9.950;2022-11-20T14:26:41;4.10;;;3.77;;
579;SDS011;276;48.392;9.950;2022-11-20T14:29:14;2.20;;;2.10;;
579;SDS011;276;48.392;9.950;2022-11-20T14:31:42;2.63;;;2.20;;
579;SDS011;276;48.392;9.950;2022-11-20T14:34:14;1.50;;;1.40;;
579;SDS011;276;48.392;9.950;2022-11-20T14:36:43;1.17;;;1.07;;
579;SDS011;276;48.392;9.950;2022-11-20T14:39:20;0.77;;;0.77;;
579;SDS011;276;48.392;9.950;2022-11-20T14:41:53;1.23;;;1.13;;
579;SDS011;276;48.392;9.950;2022-11-20T14:44:23;1.47;;;1.03;;
579;SDS011;276;48.392;9.950;2022-11-20T14:47:00;2.03;;;1.00;;
579;SDS011;276;48.392;9.950;2022-11-20T14:49:29;1.23;;;0.80;;
579;SDS011;276;48.392;9.950;2022-11-20T14:52:09;1.40;;;1.30;;
579;SDS011;276;48.392;9.950;2022-11-20T14:54:47;1.03;;;1.03;;
579;SDS011;276;48.392;9.950;2022-11-20T14:57:21;0.80;;;0.80;;
579;SDS011;276;48.392;9.950;2022-11-20T14:59:50;1.20;;;1.10;;
579;SDS011;276;48.392;9.950;2022-11-20T15:02:18;1.10;;;1.00;;
579;SDS011;276;48.392;9.950;2022-11-20T15:07:22;1.20;;;1.10;;
579;SDS011;276;48.392;9.950;2022-11-20T15:09:59;2.57;;;1.80;;
579;SDS011;276;48.392;9.950;2022-11-20T15:12:35;1.17;;;1.13;;
579;SDS011;276;48.392;9.950;2022-11-20T15:15:14;3.07;;;1.60;;
579;SDS011;276;48.392;9.950;2022-11-20T15:17:45;1.00;;;0.93;;
579;SDS011;276;48.392;9.950;2022-11-20T15:20:13;2.73;;;2.53;;
579;SDS011;276;48.392;9.950;2022-11-20T15:22:40;1.37;;;1.20;;
579;SDS011;276;48.392;9.950;2022-11-20T15:25:12;1.30;;;1.20;;
579;SDS011;276;48.392;9.950;2022-11-20T15:27:42;0.97;;;0.97;;
579;SDS011;276;48.392;9.950;2022-11-20T15:30:16;5.67;;;1.87;;
579;SDS011;276;48.392;9.950;2022-11-20T15:32:49;1.30;;;1.20;;
579;SDS011;276;48.392;9.950;2022-11-20T15:35:15;1.97;;;1.77;;
579;SDS011;276;48.392;9.950;2022-11-20T15:37:43;2.80;;;2.60;;
579;SDS011;276;48.392;9.950;2022-11-20T15:40:09;3.33;;;2.40;;
579;SDS011;276;48.392;9.950;2022-11-20T15:42:35;4.23;;;2.83;;
579;SDS011;276;48.392;9.950;2022-11-20T15:45:03;2.60;;;2.40;;
579;SDS011;276;48.392;9.950;2022-11-20T15:47:30;3.70;;;2.73;;
579;SDS011;276;48.392;9.950;2022-11-20T15:49:58;2.70;;;2.50;;
579;SDS011;276;48.392;9.950;2022-11-20T15:52:23;2.67;;;2.27;;
579;SDS011;276;48.392;9.950;2022-11-20T15:54:50;2.13;;;1.90;;
579;SDS011;276;48.392;9.950;2022-11-20T15:57:15;2.47;;;2.30;;
579;SDS011;276;48.392;9.950;2022-11-20T15:59:41;2.43;;;2.20;;
579;SDS011;276;48.392;9.950;2022-11-20T16:02:15;3.00;;;1.90;;
579;SDS011;276;48.392;9.950;2022-11-20T16:04:41;2.23;;;2.13;;
579;SDS011;276;48.392;9.950;2022-11-20T16:07:07;3.30;;;3.00;;
579;SDS011;276;48.392;9.950;2022-11-20T16:09:33;2.30;;;2.10;;
579;SDS011;276;48.392;9.950;2022-11-20T16:11:59;3.70;;;2.67;;
579;SDS011;276;48.392;9.950;2022-11-20T16:14:25;3.00;;;2.73;;
579;SDS011;276;48.392;9.950;2022-11-20T16:17:10;3.13;;;2.90;;
579;SDS011;276;48.392;9.950;2022-11-20T16:19:35;2.67;;;2.47;;
579;SDS011;276;48.392;9.950;2022-11-20T16:22:01;2.60;;;2.40;;
579;SDS011;276;48.392;9.950;2022-11-20T16:24:27;4.10;;;1.83;;
579;SDS011;276;48.392;9.950;2022-11-20T16:26:53;1.93;;;1.83;;
579;SDS011;276;48.392;9.950;2022-11-20T16:29:23;2.27;;;1.77;;
579;SDS011;276;48.392;9.950;2022-11-20T16:31:49;2.37;;;2.10;;
579;SDS011;276;48.392;9.950;2022-11-20T16:34:17;2.40;;;2.20;;
579;SDS011;276;48.392;9.950;2022-11-20T16:36:43;1.70;;;1.60;;
579;SDS011;276;48.392;9.950;2022-11-20T16:39:12;2.50;;;2.30;;
579;SDS011;276;48.392;9.950;2022-11-20T16:41:43;3.13;;;2.73;;
579;SDS011;276;48.392;9.950;2022-11-20T16:44:09;1.83;;;1.73;;
579;SDS011;276;48.392;9.950;2022-11-20T16:46:38;2.83;;;2.63;;
579;SDS011;276;48.392;9.950;2022-11-20T16:49:05;2.43;;;2.27;;
579;SDS011;276;48.392;9.950;2022-11-20T16:51:35;2.03;;;1.83;;
579;SDS011;276;48.392;9.950;2022-11-20T16:54:02;2.17;;;1.80;;
579;SDS011;276;48.392;9.950;2022-11-20T16:56:29;2.00;;;1.90;;
579;SDS011;276;48.392;9.950;2022-11-20T16:58:58;2.47;;;2.27;;
579;SDS011;276;48.392;9.950;2022-11-20T17:01:27;2.30;;;2.10;;
579;SDS011;276;48.392;9.950;2022-11-20T17:04:00;3.23;;;3.03;;
579;SDS011;276;48.392;9.950;2022-11-20T17:06:28;8.40;;;5.60;;
579;SDS011;276;48.392;9.950;2022-11-20T17:08:59;5.30;;;4.80;;
579;SDS011;276;48.392;9.950;2022-11-20T17:11:25;3.07;;;2.13;;
579;SDS011;276;48.392;9.950;2022-11-20T17:13:53;3.47;;;3.17;;
579;SDS011;276;48.392;9.950;2022-11-20T17:16:21;3.30;;;3.00;;
579;SDS011;276;48.392;9.950;2022-11-20T17:18:48;3.37;;;3.17;;
579;SDS011;276;48.392;9.950;2022-11-20T17:21:17;2.40;;;2.30;;
579;SDS011;276;48.392;9.950;2022-11-20T17:23:46;2.90;;;2.63;;
579;SDS011;276;48.392;9.950;2022-11-20T17:26:12;2.77;;;2.57;;
579;SDS011;276;48.392;9.950;2022-11-20T17:28:38;4.23;;;3.93;;
579;SDS011;276;48.392;9.950;2022-11-20T17:31:06;4.23;;;3.83;;
579;SDS011;276;48.392;9.950;2022-11-20T17:33:39;4.30;;;3.63;;
579;SDS011;276;48.392;9.950;2022-11-20T17:36:07;5.00;;;4.20;;
579;SDS011;276;48.392;9.950;2022-11-20T17:38:34;4.23;;;3.83;;
579;SDS011;276;48.392;9.950;2022-11-20T17:41:03;4.40;;;4.00;;
579;SDS011;276;48.392;9.950;2022-11-20T17:43:33;5.30;;;3.17;;
579;SDS011;276;48.392;9.950;2022-11-20T17:46:06;3.50;;;3.20;;
579;SDS011;276;48.392;9.950;2022-11-20T17:48:35;2.90;;;2.70;;
579;SDS011;276;48.392;9.950;2022-11-20T17:51:01;4.50;;;4.13;;
579;SDS011;276;48.392;9.950;2022-11-20T17:53:32;3.83;;;3.10;;